Montrose, AL (36559)

8:53 PM CDT on August 29, 2014 (GMT -0500)
S/V Grace | Change Station
CLOSE
Current Station
Personal Weather Station
Location: Daphne, AL
Elevation: 38 ft
Nearby Weather Stations

Elev 38 ft 30.59 °N, 87.91 °W | Updated 2 minutes ago

Partly Cloudy
Partly Cloudy
76.7 °F
Feels Like 77 °F
N
0.0
Wind Variable Wind from SSE
Gusts 0.0 mph

Today
High -- | Low -- °F
--% Chance of Precip.
Yesterday
High -- | Low -- °F
Precip. -- in
6:26 AM 7:18 PM
Waxing Crescent, 18% visible
Pressure 30.01 in
Visibility 10.0 miles
Clouds Scattered Clouds 12000 ft
Heat Index 77 °F
Dew Point 76 °F
Humidity 96%
Rainfall 0.05 in
Snow Depth Not available.
UV 0 out of 12
Pollen 8.10 out of 12
Air Quality Not available.
Flu Activity Not available.
METAR KCQF 300135Z AUTO 00000KT 10SM SCT120 24/23 A3001 RMK AO2

More Conditions Fewer Conditions

Pressure 30.01 in
Visibility 10.0 miles
Clouds Scattered Clouds 12000 ft
Heat Index 77 °F
Dew Point 76 °F
Humidity 96%
Rainfall 0.05 in
Snow Depth Not available.
UV 0 out of 12
Pollen 8.10 out of 12
Air Quality Not available.
Flu Activity Not available.
METAR KCQF 300135Z AUTO 00000KT 10SM SCT120 24/23 A3001 RMK AO2

More Conditions Fewer Conditions

10-Day Weather Forecast

Almanac

Astronomy

Aug. 29, 2014 Rise Set
Actual Time 6:26 AM CDT 7:18 PM CDT
Civil Twilight 6:01 AM CDT 7:42 PM CDT
Nautical Twilight 5:32 AM CDT 8:11 PM CDT
Astronomical Twilight 5:02 AM CDT 8:41 PM CDT
Moon 9:57 AM CDT (8/29) 9:35 PM CDT (8/29)
Length of Visible Light 13h 40m
Length of Day
12h 51m
Tomorrow will be 1m 45s shorter.
Waxing Crescent, 18% of the Moon is Illuminated
Today
Waxing Crescent
Sep 2
First Quarter
Sep 8
Full
Sep 15
Last Quarter
Sep 24
New

Today's Extremes

State Highs State Lows

Community

WunderPhotos

Upload Photos

1,748,403 photos uploaded!

Nearby

Snow Depth

Station Depth Elevation
No new snow has been reported.

Earthquake Activity

City Distance Mag. Time & Date
No recent earthquake activity has been reported nearby.
Minimum magnitude displayed is 2.5.

Coastal Water Temperatures

Place Temperature
Mobile State Docks, AL 84.9 °F
Coast Guard Sector Mobile, AL 86.0 °F

Nearby Weather Stations